sensor_id;sensor_type;location;lat;lon;timestamp;P1;durP1;ratioP1;P2;durP2;ratioP2
53533;SDS011;39421;53.204;6.568;2022-08-01T00:02:15;3.10;;;2.23;;
53533;SDS011;39421;53.204;6.568;2022-08-01T00:04:41;4.00;;;2.37;;
53533;SDS011;39421;53.204;6.568;2022-08-01T00:07:07;4.05;;;2.50;;
53533;SDS011;39421;53.204;6.568;2022-08-01T00:09:33;4.10;;;2.17;;
53533;SDS011;39421;53.204;6.568;2022-08-01T00:12:00;3.20;;;2.30;;
53533;SDS011;39421;53.204;6.568;2022-08-01T00:14:27;3.88;;;2.25;;
53533;SDS011;39421;53.204;6.568;2022-08-01T00:16:56;3.67;;;2.58;;
53533;SDS011;39421;53.204;6.568;2022-08-01T00:19:22;3.80;;;2.40;;
53533;SDS011;39421;53.204;6.568;2022-08-01T00:21:48;3.15;;;2.47;;
53533;SDS011;39421;53.204;6.568;2022-08-01T00:24:15;3.20;;;2.40;;
53533;SDS011;39421;53.204;6.568;2022-08-01T00:26:40;2.40;;;2.10;;
53533;SDS011;39421;53.204;6.568;2022-08-01T00:29:12;3.15;;;2.45;;
53533;SDS011;39421;53.204;6.568;2022-08-01T00:31:38;2.70;;;1.97;;
53533;SDS011;39421;53.204;6.568;2022-08-01T00:34:04;3.80;;;2.50;;
53533;SDS011;39421;53.204;6.568;2022-08-01T00:36:30;3.47;;;2.10;;
53533;SDS011;39421;53.204;6.568;2022-08-01T00:38:55;3.17;;;2.45;;
53533;SDS011;39421;53.204;6.568;2022-08-01T00:41:21;2.70;;;2.25;;
53533;SDS011;39421;53.204;6.568;2022-08-01T00:43:47;3.33;;;2.20;;
53533;SDS011;39421;53.204;6.568;2022-08-01T00:46:13;4.37;;;2.50;;
53533;SDS011;39421;53.204;6.568;2022-08-01T00:48:38;4.03;;;2.40;;
53533;SDS011;39421;53.204;6.568;2022-08-01T00:51:04;4.10;;;2.35;;
53533;SDS011;39421;53.204;6.568;2022-08-01T00:53:30;4.78;;;2.60;;
53533;SDS011;39421;53.204;6.568;2022-08-01T00:55:59;4.45;;;2.70;;
53533;SDS011;39421;53.204;6.568;2022-08-01T00:58:26;3.92;;;2.50;;
53533;SDS011;39421;53.204;6.568;2022-08-01T01:00:54;4.03;;;2.35;;
53533;SDS011;39421;53.204;6.568;2022-08-01T01:03:24;4.22;;;2.28;;
53533;SDS011;39421;53.204;6.568;2022-08-01T01:06:25;2.92;;;2.20;;
53533;SDS011;39421;53.204;6.568;2022-08-01T01:09:11;3.70;;;2.33;;
53533;SDS011;39421;53.204;6.568;2022-08-01T01:11:47;3.90;;;2.10;;
53533;SDS011;39421;53.204;6.568;2022-08-01T01:14:38;3.10;;;2.20;;
53533;SDS011;39421;53.204;6.568;2022-08-01T01:17:05;5.10;;;2.47;;
53533;SDS011;39421;53.204;6.568;2022-08-01T01:19:33;3.88;;;2.08;;
53533;SDS011;39421;53.204;6.568;2022-08-01T01:27:57;3.33;;;2.00;;
53533;SDS011;39421;53.204;6.568;2022-08-01T01:30:41;5.43;;;2.25;;
53533;SDS011;39421;53.204;6.568;2022-08-01T01:33:10;4.53;;;2.03;;
53533;SDS011;39421;53.204;6.568;2022-08-01T01:35:47;4.82;;;2.15;;
53533;SDS011;39421;53.204;6.568;2022-08-01T01:38:18;2.83;;;1.70;;
53533;SDS011;39421;53.204;6.568;2022-08-01T01:40:52;3.72;;;2.10;;
53533;SDS011;39421;53.204;6.568;2022-08-01T01:43:20;3.65;;;1.90;;
53533;SDS011;39421;53.204;6.568;2022-08-01T01:45:48;3.67;;;2.20;;
53533;SDS011;39421;53.204;6.568;2022-08-01T01:48:17;3.70;;;1.92;;
53533;SDS011;39421;53.204;6.568;2022-08-01T01:50:46;5.10;;;2.50;;
53533;SDS011;39421;53.204;6.568;2022-08-01T01:53:13;2.95;;;1.92;;
53533;SDS011;39421;53.204;6.568;2022-08-01T01:55:44;6.03;;;2.00;;
53533;SDS011;39421;53.204;6.568;2022-08-01T01:58:13;3.45;;;1.98;;
53533;SDS011;39421;53.204;6.568;2022-08-01T02:00:42;4.70;;;1.92;;
53533;SDS011;39421;53.204;6.568;2022-08-01T02:03:10;5.07;;;2.10;;
53533;SDS011;39421;53.204;6.568;2022-08-01T02:05:37;4.22;;;2.00;;
53533;SDS011;39421;53.204;6.568;2022-08-01T02:08:05;4.75;;;1.80;;
53533;SDS011;39421;53.204;6.568;2022-08-01T02:10:33;4.10;;;2.03;;
53533;SDS011;39421;53.204;6.568;2022-08-01T02:13:01;5.93;;;2.10;;
53533;SDS011;39421;53.204;6.568;2022-08-01T02:15:32;3.45;;;1.75;;
53533;SDS011;39421;53.204;6.568;2022-08-01T02:18:00;5.13;;;1.73;;
53533;SDS011;39421;53.204;6.568;2022-08-01T02:20:36;3.28;;;1.70;;
53533;SDS011;39421;53.204;6.568;2022-08-01T02:23:08;2.97;;;1.77;;
53533;SDS011;39421;53.204;6.568;2022-08-01T02:25:42;4.35;;;1.80;;
53533;SDS011;39421;53.204;6.568;2022-08-01T02:28:20;4.45;;;1.48;;
53533;SDS011;39421;53.204;6.568;2022-08-01T02:31:04;5.57;;;1.77;;
53533;SDS011;39421;53.204;6.568;2022-08-01T02:33:38;5.40;;;1.90;;
53533;SDS011;39421;53.204;6.568;2022-08-01T02:36:19;3.50;;;1.90;;
53533;SDS011;39421;53.204;6.568;2022-08-01T02:38:46;4.35;;;2.17;;
53533;SDS011;39421;53.204;6.568;2022-08-01T02:41:13;4.20;;;1.83;;
53533;SDS011;39421;53.204;6.568;2022-08-01T02:43:45;7.22;;;2.55;;
53533;SDS011;39421;53.204;6.568;2022-08-01T02:46:16;5.53;;;2.60;;
53533;SDS011;39421;53.204;6.568;2022-08-01T02:48:46;7.83;;;2.60;;
53533;SDS011;39421;53.204;6.568;2022-08-01T02:51:14;5.90;;;2.87;;
53533;SDS011;39421;53.204;6.568;2022-08-01T02:53:41;8.02;;;2.42;;
53533;SDS011;39421;53.204;6.568;2022-08-01T02:56:08;6.90;;;2.80;;
53533;SDS011;39421;53.204;6.568;2022-08-01T02:58:37;7.57;;;2.97;;
53533;SDS011;39421;53.204;6.568;2022-08-01T03:01:05;7.43;;;2.70;;
53533;SDS011;39421;53.204;6.568;2022-08-01T03:03:33;7.05;;;2.40;;
53533;SDS011;39421;53.204;6.568;2022-08-01T03:06:03;4.68;;;2.45;;
53533;SDS011;39421;53.204;6.568;2022-08-01T03:08:30;8.00;;;2.58;;
53533;SDS011;39421;53.204;6.568;2022-08-01T03:10:56;6.30;;;2.67;;
53533;SDS011;39421;53.204;6.568;2022-08-01T03:13:24;5.63;;;2.47;;
53533;SDS011;39421;53.204;6.568;2022-08-01T03:15:55;6.70;;;2.47;;
53533;SDS011;39421;53.204;6.568;2022-08-01T03:18:22;4.18;;;2.60;;
53533;SDS011;39421;53.204;6.568;2022-08-01T03:20:55;5.35;;;2.60;;
53533;SDS011;39421;53.204;6.568;2022-08-01T03:23:23;7.07;;;2.88;;
53533;SDS011;39421;53.204;6.568;2022-08-01T03:25:49;6.83;;;2.67;;
53533;SDS011;39421;53.204;6.568;2022-08-01T03:28:16;6.32;;;2.60;;
53533;SDS011;39421;53.204;6.568;2022-08-01T03:30:43;4.80;;;2.55;;
53533;SDS011;39421;53.204;6.568;2022-08-01T03:33:12;6.35;;;2.70;;
53533;SDS011;39421;53.204;6.568;2022-08-01T03:35:41;5.53;;;2.67;;
53533;SDS011;39421;53.204;6.568;2022-08-01T03:38:11;5.77;;;2.50;;
53533;SDS011;39421;53.204;6.568;2022-08-01T03:40:43;5.72;;;2.50;;
53533;SDS011;39421;53.204;6.568;2022-08-01T03:43:19;6.00;;;2.33;;
53533;SDS011;39421;53.204;6.568;2022-08-01T03:45:58;6.03;;;2.53;;
53533;SDS011;39421;53.204;6.568;2022-08-01T03:48:29;5.65;;;2.40;;
53533;SDS011;39421;53.204;6.568;2022-08-01T03:51:01;6.80;;;2.83;;
53533;SDS011;39421;53.204;6.568;2022-08-01T03:53:30;5.68;;;2.65;;
53533;SDS011;39421;53.204;6.568;2022-08-01T03:56:01;6.25;;;2.47;;
53533;SDS011;39421;53.204;6.568;2022-08-01T03:58:29;4.32;;;2.42;;
53533;SDS011;39421;53.204;6.568;2022-08-01T04:01:01;7.47;;;2.80;;
53533;SDS011;39421;53.204;6.568;2022-08-01T04:03:27;4.18;;;2.28;;
53533;SDS011;39421;53.204;6.568;2022-08-01T04:05:53;6.50;;;2.53;;
53533;SDS011;39421;53.204;6.568;2022-08-01T04:08:19;7.73;;;2.80;;
53533;SDS011;39421;53.204;6.568;2022-08-01T04:10:45;6.55;;;2.40;;
53533;SDS011;39421;53.204;6.568;2022-08-01T04:13:10;6.03;;;2.60;;
53533;SDS011;39421;53.204;6.568;2022-08-01T04:15:36;5.15;;;2.40;;
53533;SDS011;39421;53.204;6.568;2022-08-01T04:18:02;7.17;;;2.60;;
53533;SDS011;39421;53.204;6.568;2022-08-01T04:20:29;7.88;;;2.60;;
53533;SDS011;39421;53.204;6.568;2022-08-01T04:22:55;5.53;;;2.27;;
53533;SDS011;39421;53.204;6.568;2022-08-01T04:25:32;4.70;;;2.13;;
53533;SDS011;39421;53.204;6.568;2022-08-01T04:28:00;8.52;;;2.50;;
53533;SDS011;39421;53.204;6.568;2022-08-01T04:30:29;6.00;;;2.80;;
53533;SDS011;39421;53.204;6.568;2022-08-01T04:32:59;6.00;;;2.60;;
53533;SDS011;39421;53.204;6.568;2022-08-01T04:35:27;5.47;;;2.40;;
53533;SDS011;39421;53.204;6.568;2022-08-01T04:37:54;4.93;;;2.60;;
53533;SDS011;39421;53.204;6.568;2022-08-01T04:40:21;7.55;;;2.80;;
53533;SDS011;39421;53.204;6.568;2022-08-01T04:42:51;5.32;;;2.17;;
53533;SDS011;39421;53.204;6.568;2022-08-01T04:45:23;5.15;;;2.42;;
53533;SDS011;39421;53.204;6.568;2022-08-01T04:47:55;6.70;;;2.50;;
53533;SDS011;39421;53.204;6.568;2022-08-01T04:50:22;5.68;;;2.17;;
53533;SDS011;39421;53.204;6.568;2022-08-01T04:52:49;4.82;;;2.58;;
53533;SDS011;39421;53.204;6.568;2022-08-01T04:55:16;8.55;;;2.90;;
53533;SDS011;39421;53.204;6.568;2022-08-01T04:57:43;8.10;;;2.97;;
53533;SDS011;39421;53.204;6.568;2022-08-01T05:00:13;8.82;;;2.85;;
53533;SDS011;39421;53.204;6.568;2022-08-01T05:02:39;8.48;;;3.00;;
53533;SDS011;39421;53.204;6.568;2022-08-01T05:05:05;7.70;;;2.97;;
53533;SDS011;39421;53.204;6.568;2022-08-01T05:07:31;6.13;;;2.50;;
53533;SDS011;39421;53.204;6.568;2022-08-01T05:09:58;9.93;;;3.27;;
53533;SDS011;39421;53.204;6.568;2022-08-01T05:12:23;7.63;;;2.43;;
53533;SDS011;39421;53.204;6.568;2022-08-01T05:14:49;8.17;;;2.90;;
53533;SDS011;39421;53.204;6.568;2022-08-01T05:17:22;5.63;;;2.65;;
53533;SDS011;39421;53.204;6.568;2022-08-01T05:19:48;6.80;;;2.70;;
53533;SDS011;39421;53.204;6.568;2022-08-01T05:22:13;8.40;;;3.10;;
53533;SDS011;39421;53.204;6.568;2022-08-01T05:24:42;8.93;;;3.03;;
53533;SDS011;39421;53.204;6.568;2022-08-01T05:27:08;9.85;;;3.15;;
53533;SDS011;39421;53.204;6.568;2022-08-01T05:29:34;9.13;;;3.10;;
53533;SDS011;39421;53.204;6.568;2022-08-01T05:32:00;7.80;;;2.80;;
53533;SDS011;39421;53.204;6.568;2022-08-01T05:34:26;9.38;;;3.13;;
53533;SDS011;39421;53.204;6.568;2022-08-01T05:36:52;8.80;;;3.25;;
53533;SDS011;39421;53.204;6.568;2022-08-01T05:39:18;8.82;;;3.22;;
53533;SDS011;39421;53.204;6.568;2022-08-01T05:41:43;10.05;;;3.45;;
53533;SDS011;39421;53.204;6.568;2022-08-01T05:44:09;9.33;;;3.37;;
53533;SDS011;39421;53.204;6.568;2022-08-01T05:46:35;9.63;;;3.07;;
53533;SDS011;39421;53.204;6.568;2022-08-01T05:49:01;10.63;;;3.40;;
53533;SDS011;39421;53.204;6.568;2022-08-01T05:51:28;9.73;;;3.30;;
53533;SDS011;39421;53.204;6.568;2022-08-01T05:53:54;9.03;;;3.30;;
53533;SDS011;39421;53.204;6.568;2022-08-01T05:56:25;8.02;;;3.10;;
53533;SDS011;39421;53.204;6.568;2022-08-01T05:58:52;9.03;;;3.20;;
53533;SDS011;39421;53.204;6.568;2022-08-01T06:01:18;10.17;;;2.90;;
53533;SDS011;39421;53.204;6.568;2022-08-01T06:03:44;9.77;;;3.00;;
53533;SDS011;39421;53.204;6.568;2022-08-01T06:06:11;6.90;;;2.67;;
53533;SDS011;39421;53.204;6.568;2022-08-01T06:08:39;9.95;;;3.22;;
53533;SDS011;39421;53.204;6.568;2022-08-01T06:11:04;10.23;;;3.40;;
53533;SDS011;39421;53.204;6.568;2022-08-01T06:13:36;7.85;;;2.90;;
53533;SDS011;39421;53.204;6.568;2022-08-01T06:16:02;10.97;;;3.43;;
53533;SDS011;39421;53.204;6.568;2022-08-01T06:18:29;11.50;;;3.20;;
53533;SDS011;39421;53.204;6.568;2022-08-01T06:20:54;11.03;;;3.30;;
53533;SDS011;39421;53.204;6.568;2022-08-01T06:23:20;7.93;;;2.87;;
53533;SDS011;39421;53.204;6.568;2022-08-01T06:25:46;8.73;;;2.90;;
53533;SDS011;39421;53.204;6.568;2022-08-01T06:28:12;8.73;;;2.73;;
53533;SDS011;39421;53.204;6.568;2022-08-01T06:30:38;11.00;;;2.93;;
53533;SDS011;39421;53.204;6.568;2022-08-01T06:33:04;9.70;;;3.03;;
53533;SDS011;39421;53.204;6.568;2022-08-01T06:35:33;8.97;;;3.10;;
53533;SDS011;39421;53.204;6.568;2022-08-01T06:37:58;6.67;;;2.63;;
53533;SDS011;39421;53.204;6.568;2022-08-01T06:40:24;8.75;;;3.20;;
53533;SDS011;39421;53.204;6.568;2022-08-01T06:42:50;9.43;;;3.20;;
53533;SDS011;39421;53.204;6.568;2022-08-01T06:45:16;6.90;;;2.90;;
53533;SDS011;39421;53.204;6.568;2022-08-01T06:47:42;8.73;;;2.80;;
53533;SDS011;39421;53.204;6.568;2022-08-01T06:50:09;8.73;;;3.13;;
53533;SDS011;39421;53.204;6.568;2022-08-01T06:52:36;10.38;;;3.17;;
53533;SDS011;39421;53.204;6.568;2022-08-01T06:55:02;9.23;;;2.75;;
53533;SDS011;39421;53.204;6.568;2022-08-01T06:57:30;10.10;;;2.90;;
53533;SDS011;39421;53.204;6.568;2022-08-01T07:00:00;6.85;;;3.08;;
53533;SDS011;39421;53.204;6.568;2022-08-01T07:02:28;9.07;;;3.10;;
53533;SDS011;39421;53.204;6.568;2022-08-01T07:04:54;7.97;;;2.88;;
53533;SDS011;39421;53.204;6.568;2022-08-01T07:07:20;10.43;;;2.90;;
53533;SDS011;39421;53.204;6.568;2022-08-01T07:09:45;9.15;;;2.83;;
53533;SDS011;39421;53.204;6.568;2022-08-01T07:12:11;9.53;;;2.70;;
53533;SDS011;39421;53.204;6.568;2022-08-01T07:14:37;7.50;;;2.72;;
53533;SDS011;39421;53.204;6.568;2022-08-01T07:17:02;11.27;;;3.25;;
53533;SDS011;39421;53.204;6.568;2022-08-01T07:19:29;10.68;;;3.13;;
53533;SDS011;39421;53.204;6.568;2022-08-01T07:21:56;8.95;;;2.70;;
53533;SDS011;39421;53.204;6.568;2022-08-01T07:24:22;8.20;;;2.80;;
53533;SDS011;39421;53.204;6.568;2022-08-01T07:26:48;11.63;;;2.80;;
53533;SDS011;39421;53.204;6.568;2022-08-01T07:29:14;8.98;;;2.90;;
53533;SDS011;39421;53.204;6.568;2022-08-01T07:31:43;5.57;;;2.72;;
53533;SDS011;39421;53.204;6.568;2022-08-01T07:34:08;5.93;;;2.77;;
53533;SDS011;39421;53.204;6.568;2022-08-01T07:36:35;9.27;;;2.90;;
53533;SDS011;39421;53.204;6.568;2022-08-01T07:39:01;9.70;;;2.88;;
53533;SDS011;39421;53.204;6.568;2022-08-01T07:41:26;7.68;;;2.92;;
53533;SDS011;39421;53.204;6.568;2022-08-01T07:43:52;8.40;;;2.80;;
53533;SDS011;39421;53.204;6.568;2022-08-01T07:46:18;7.78;;;2.83;;
53533;SDS011;39421;53.204;6.568;2022-08-01T07:48:44;7.07;;;2.43;;
53533;SDS011;39421;53.204;6.568;2022-08-01T07:51:10;6.70;;;2.37;;
53533;SDS011;39421;53.204;6.568;2022-08-01T07:53:37;10.10;;;2.67;;
53533;SDS011;39421;53.204;6.568;2022-08-01T07:56:04;8.30;;;2.70;;
53533;SDS011;39421;53.204;6.568;2022-08-01T07:58:31;7.53;;;2.40;;
53533;SDS011;39421;53.204;6.568;2022-08-01T08:00:57;5.22;;;2.33;;
53533;SDS011;39421;53.204;6.568;2022-08-01T08:03:23;9.68;;;2.40;;
53533;SDS011;39421;53.204;6.568;2022-08-01T08:05:48;7.47;;;2.60;;
53533;SDS011;39421;53.204;6.568;2022-08-01T08:08:14;7.25;;;2.38;;
53533;SDS011;39421;53.204;6.568;2022-08-01T08:10:42;6.35;;;2.20;;
53533;SDS011;39421;53.204;6.568;2022-08-01T08:13:07;6.53;;;2.37;;
53533;SDS011;39421;53.204;6.568;2022-08-01T08:15:36;5.95;;;2.10;;
53533;SDS011;39421;53.204;6.568;2022-08-01T08:18:06;7.40;;;2.42;;
53533;SDS011;39421;53.204;6.568;2022-08-01T08:20:32;7.65;;;2.30;;
53533;SDS011;39421;53.204;6.568;2022-08-01T08:22:58;6.85;;;2.30;;
53533;SDS011;39421;53.204;6.568;2022-08-01T08:25:25;5.00;;;1.97;;
53533;SDS011;39421;53.204;6.568;2022-08-01T08:27:52;6.30;;;2.08;;
53533;SDS011;39421;53.204;6.568;2022-08-01T08:30:18;6.60;;;2.10;;
53533;SDS011;39421;53.204;6.568;2022-08-01T08:32:44;6.13;;;2.13;;
53533;SDS011;39421;53.204;6.568;2022-08-01T08:35:13;7.90;;;2.22;;
53533;SDS011;39421;53.204;6.568;2022-08-01T08:37:40;5.10;;;1.90;;
53533;SDS011;39421;53.204;6.568;2022-08-01T08:40:08;6.88;;;2.13;;
53533;SDS011;39421;53.204;6.568;2022-08-01T08:42:35;6.07;;;1.90;;
53533;SDS011;39421;53.204;6.568;2022-08-01T08:45:04;4.30;;;1.80;;
53533;SDS011;39421;53.204;6.568;2022-08-01T08:47:32;4.35;;;1.73;;
53533;SDS011;39421;53.204;6.568;2022-08-01T08:49:59;7.13;;;2.10;;
53533;SDS011;39421;53.204;6.568;2022-08-01T08:52:25;6.30;;;2.10;;
53533;SDS011;39421;53.204;6.568;2022-08-01T08:54:53;6.63;;;1.88;;
53533;SDS011;39421;53.204;6.568;2022-08-01T08:57:20;7.95;;;2.25;;
53533;SDS011;39421;53.204;6.568;2022-08-01T08:59:50;5.20;;;1.92;;
53533;SDS011;39421;53.204;6.568;2022-08-01T09:02:17;7.00;;;1.75;;
53533;SDS011;39421;53.204;6.568;2022-08-01T09:04:43;5.13;;;1.85;;
53533;SDS011;39421;53.204;6.568;2022-08-01T09:07:10;4.78;;;1.83;;
53533;SDS011;39421;53.204;6.568;2022-08-01T09:09:37;6.10;;;1.98;;
53533;SDS011;39421;53.204;6.568;2022-08-01T09:12:03;6.07;;;2.00;;
53533;SDS011;39421;53.204;6.568;2022-08-01T09:14:29;6.35;;;1.90;;
53533;SDS011;39421;53.204;6.568;2022-08-01T09:19:39;6.10;;;1.97;;
53533;SDS011;39421;53.204;6.568;2022-08-01T09:22:14;5.43;;;2.00;;
53533;SDS011;39421;53.204;6.568;2022-08-01T09:24:58;5.30;;;1.75;;
53533;SDS011;39421;53.204;6.568;2022-08-01T09:27:33;3.65;;;1.40;;
53533;SDS011;39421;53.204;6.568;2022-08-01T09:30:13;6.35;;;1.70;;
53533;SDS011;39421;53.204;6.568;2022-08-01T09:32:52;5.45;;;1.95;;
53533;SDS011;39421;53.204;6.568;2022-08-01T09:35:25;5.88;;;1.83;;
53533;SDS011;39421;53.204;6.568;2022-08-01T09:40:54;5.45;;;1.85;;
53533;SDS011;39421;53.204;6.568;2022-08-01T09:43:23;5.63;;;1.85;;
53533;SDS011;39421;53.204;6.568;2022-08-01T09:45:50;5.45;;;1.90;;
53533;SDS011;39421;53.204;6.568;2022-08-01T09:48:18;4.78;;;1.80;;
53533;SDS011;39421;53.204;6.568;2022-08-01T09:50:45;5.47;;;1.90;;
53533;SDS011;39421;53.204;6.568;2022-08-01T09:53:12;6.53;;;2.00;;
53533;SDS011;39421;53.204;6.568;2022-08-01T09:55:39;5.73;;;1.63;;
53533;SDS011;39421;53.204;6.568;2022-08-01T09:58:05;3.35;;;1.50;;
53533;SDS011;39421;53.204;6.568;2022-08-01T10:00:33;3.65;;;1.67;;
53533;SDS011;39421;53.204;6.568;2022-08-01T10:03:00;5.97;;;1.95;;
53533;SDS011;39421;53.204;6.568;2022-08-01T10:05:47;6.43;;;1.75;;
53533;SDS011;39421;53.204;6.568;2022-08-01T10:08:13;5.25;;;1.73;;
53533;SDS011;39421;53.204;6.568;2022-08-01T10:10:40;4.75;;;1.48;;
53533;SDS011;39421;53.204;6.568;2022-08-01T10:13:07;6.20;;;1.63;;
53533;SDS011;39421;53.204;6.568;2022-08-01T10:15:34;3.97;;;1.50;;
53533;SDS011;39421;53.204;6.568;2022-08-01T10:18:06;4.13;;;1.70;;
53533;SDS011;39421;53.204;6.568;2022-08-01T10:20:34;6.50;;;1.70;;
53533;SDS011;39421;53.204;6.568;2022-08-01T10:23:01;3.87;;;1.50;;
53533;SDS011;39421;53.204;6.568;2022-08-01T10:25:29;4.93;;;1.52;;
53533;SDS011;39421;53.204;6.568;2022-08-01T10:28:05;4.20;;;1.50;;
53533;SDS011;39421;53.204;6.568;2022-08-01T10:30:35;3.88;;;1.70;;
53533;SDS011;39421;53.204;6.568;2022-08-01T10:33:02;5.03;;;1.50;;
53533;SDS011;39421;53.204;6.568;2022-08-01T10:35:29;5.85;;;1.70;;
53533;SDS011;39421;53.204;6.568;2022-08-01T10:37:56;5.13;;;1.80;;
53533;SDS011;39421;53.204;6.568;2022-08-01T10:40:23;4.17;;;1.60;;
53533;SDS011;39421;53.204;6.568;2022-08-01T10:42:50;4.03;;;1.52;;
53533;SDS011;39421;53.204;6.568;2022-08-01T10:45:17;5.75;;;1.70;;
53533;SDS011;39421;53.204;6.568;2022-08-01T10:50:51;5.78;;;1.65;;
53533;SDS011;39421;53.204;6.568;2022-08-01T10:53:22;4.15;;;1.67;;
53533;SDS011;39421;53.204;6.568;2022-08-01T10:55:51;5.72;;;1.75;;
53533;SDS011;39421;53.204;6.568;2022-08-01T11:03:40;5.60;;;1.63;;
53533;SDS011;39421;53.204;6.568;2022-08-01T11:06:06;4.75;;;1.58;;
53533;SDS011;39421;53.204;6.568;2022-08-01T11:08:40;4.47;;;1.40;;
53533;SDS011;39421;53.204;6.568;2022-08-01T11:11:15;4.83;;;1.50;;
53533;SDS011;39421;53.204;6.568;2022-08-01T11:16:38;4.03;;;1.50;;
53533;SDS011;39421;53.204;6.568;2022-08-01T11:19:06;6.78;;;2.08;;
53533;SDS011;39421;53.204;6.568;2022-08-01T11:29:43;3.92;;;1.50;;
53533;SDS011;39421;53.204;6.568;2022-08-01T11:32:48;2.63;;;1.55;;
53533;SDS011;39421;53.204;6.568;2022-08-01T11:35:15;4.78;;;1.65;;
53533;SDS011;39421;53.204;6.568;2022-08-01T11:37:42;4.77;;;1.40;;
53533;SDS011;39421;53.204;6.568;2022-08-01T11:42:48;3.57;;;1.47;;
53533;SDS011;39421;53.204;6.568;2022-08-01T11:45:15;3.47;;;1.45;;
53533;SDS011;39421;53.204;6.568;2022-08-01T11:47:45;4.50;;;1.57;;
53533;SDS011;39421;53.204;6.568;2022-08-01T11:53:07;6.30;;;1.70;;
53533;SDS011;39421;53.204;6.568;2022-08-01T11:55:33;5.40;;;1.65;;
53533;SDS011;39421;53.204;6.568;2022-08-01T11:58:03;3.58;;;1.40;;
53533;SDS011;39421;53.204;6.568;2022-08-01T12:00:30;3.63;;;1.30;;
53533;SDS011;39421;53.204;6.568;2022-08-01T12:03:00;3.83;;;1.30;;
53533;SDS011;39421;53.204;6.568;2022-08-01T12:05:28;5.22;;;1.38;;
53533;SDS011;39421;53.204;6.568;2022-08-01T12:07:56;4.30;;;1.60;;
53533;SDS011;39421;53.204;6.568;2022-08-01T12:10:23;6.20;;;1.65;;
53533;SDS011;39421;53.204;6.568;2022-08-01T12:13:00;4.57;;;1.40;;
53533;SDS011;39421;53.204;6.568;2022-08-01T12:15:34;3.40;;;1.40;;
53533;SDS011;39421;53.204;6.568;2022-08-01T12:18:02;4.93;;;1.55;;
53533;SDS011;39421;53.204;6.568;2022-08-01T12:20:31;2.92;;;1.40;;
53533;SDS011;39421;53.204;6.568;2022-08-01T12:23:00;5.03;;;1.48;;
53533;SDS011;39421;53.204;6.568;2022-08-01T12:25:28;4.07;;;1.50;;
53533;SDS011;39421;53.204;6.568;2022-08-01T12:27:54;3.35;;;1.40;;
53533;SDS011;39421;53.204;6.568;2022-08-01T12:30:25;3.22;;;1.20;;
53533;SDS011;39421;53.204;6.568;2022-08-01T12:32:52;5.18;;;1.60;;
53533;SDS011;39421;53.204;6.568;2022-08-01T12:35:20;4.82;;;1.50;;
53533;SDS011;39421;53.204;6.568;2022-08-01T12:37:48;5.18;;;1.40;;
53533;SDS011;39421;53.204;6.568;2022-08-01T12:40:40;4.22;;;1.25;;
53533;SDS011;39421;53.204;6.568;2022-08-01T12:43:07;4.13;;;1.50;;
53533;SDS011;39421;53.204;6.568;2022-08-01T12:45:34;3.45;;;1.55;;
53533;SDS011;39421;53.204;6.568;2022-08-01T12:48:07;4.10;;;1.45;;
53533;SDS011;39421;53.204;6.568;2022-08-01T12:50:44;3.35;;;1.38;;
53533;SDS011;39421;53.204;6.568;2022-08-01T12:53:11;2.88;;;1.20;;
53533;SDS011;39421;53.204;6.568;2022-08-01T12:55:47;3.72;;;1.35;;
53533;SDS011;39421;53.204;6.568;2022-08-01T12:58:17;4.88;;;1.50;;
53533;SDS011;39421;53.204;6.568;2022-08-01T13:00:45;4.90;;;1.50;;
53533;SDS011;39421;53.204;6.568;2022-08-01T13:03:13;2.72;;;1.23;;
53533;SDS011;39421;53.204;6.568;2022-08-01T13:08:23;4.28;;;1.33;;
53533;SDS011;39421;53.204;6.568;2022-08-01T13:11:10;2.92;;;1.50;;
53533;SDS011;39421;53.204;6.568;2022-08-01T13:16:13;4.22;;;1.60;;
53533;SDS011;39421;53.204;6.568;2022-08-01T13:18:47;5.55;;;1.65;;
53533;SDS011;39421;53.204;6.568;2022-08-01T13:24:04;4.15;;;1.55;;
53533;SDS011;39421;53.204;6.568;2022-08-01T13:29:31;2.78;;;1.40;;
53533;SDS011;39421;53.204;6.568;2022-08-01T13:32:14;3.40;;;1.40;;
53533;SDS011;39421;53.204;6.568;2022-08-01T13:34:41;3.13;;;1.30;;
53533;SDS011;39421;53.204;6.568;2022-08-01T13:37:06;5.80;;;1.40;;
53533;SDS011;39421;53.204;6.568;2022-08-01T13:39:32;5.30;;;1.40;;
53533;SDS011;39421;53.204;6.568;2022-08-01T13:42:11;2.67;;;1.40;;
53533;SDS011;39421;53.204;6.568;2022-08-01T13:44:38;4.32;;;1.40;;
53533;SDS011;39421;53.204;6.568;2022-08-01T13:47:05;4.15;;;1.70;;
53533;SDS011;39421;53.204;6.568;2022-08-01T13:49:31;3.67;;;1.50;;
53533;SDS011;39421;53.204;6.568;2022-08-01T13:51:58;3.03;;;1.55;;
53533;SDS011;39421;53.204;6.568;2022-08-01T13:54:29;3.20;;;1.50;;
53533;SDS011;39421;53.204;6.568;2022-08-01T13:56:54;4.85;;;1.70;;
53533;SDS011;39421;53.204;6.568;2022-08-01T13:59:20;3.50;;;1.30;;
53533;SDS011;39421;53.204;6.568;2022-08-01T14:01:52;4.60;;;1.70;;
53533;SDS011;39421;53.204;6.568;2022-08-01T14:04:18;4.63;;;1.40;;
53533;SDS011;39421;53.204;6.568;2022-08-01T14:06:46;4.78;;;1.65;;
53533;SDS011;39421;53.204;6.568;2022-08-01T14:09:12;5.70;;;1.52;;
53533;SDS011;39421;53.204;6.568;2022-08-01T14:11:37;4.27;;;1.30;;
53533;SDS011;39421;53.204;6.568;2022-08-01T14:14:03;5.13;;;1.53;;
53533;SDS011;39421;53.204;6.568;2022-08-01T14:16:30;4.65;;;1.60;;
53533;SDS011;39421;53.204;6.568;2022-08-01T14:18:56;3.92;;;1.48;;
53533;SDS011;39421;53.204;6.568;2022-08-01T14:21:21;3.20;;;1.30;;
53533;SDS011;39421;53.204;6.568;2022-08-01T14:23:47;4.10;;;1.70;;
53533;SDS011;39421;53.204;6.568;2022-08-01T14:26:13;4.18;;;1.60;;
53533;SDS011;39421;53.204;6.568;2022-08-01T14:28:38;4.27;;;1.50;;
53533;SDS011;39421;53.204;6.568;2022-08-01T14:31:04;4.93;;;1.70;;
53533;SDS011;39421;53.204;6.568;2022-08-01T14:33:33;3.03;;;1.60;;
53533;SDS011;39421;53.204;6.568;2022-08-01T14:35:59;4.70;;;1.77;;
53533;SDS011;39421;53.204;6.568;2022-08-01T14:38:25;3.57;;;1.50;;
53533;SDS011;39421;53.204;6.568;2022-08-01T14:40:52;5.33;;;1.67;;
53533;SDS011;39421;53.204;6.568;2022-08-01T14:43:18;5.35;;;1.55;;
53533;SDS011;39421;53.204;6.568;2022-08-01T14:45:44;7.55;;;3.47;;
53533;SDS011;39421;53.204;6.568;2022-08-01T14:48:14;3.93;;;1.60;;
53533;SDS011;39421;53.204;6.568;2022-08-01T14:50:40;4.57;;;1.77;;
53533;SDS011;39421;53.204;6.568;2022-08-01T14:53:06;4.87;;;2.70;;
53533;SDS011;39421;53.204;6.568;2022-08-01T14:55:31;4.80;;;1.92;;
53533;SDS011;39421;53.204;6.568;2022-08-01T14:57:57;4.40;;;1.60;;
53533;SDS011;39421;53.204;6.568;2022-08-01T15:00:23;5.77;;;1.67;;
53533;SDS011;39421;53.204;6.568;2022-08-01T15:02:51;5.25;;;1.75;;
53533;SDS011;39421;53.204;6.568;2022-08-01T15:05:20;4.40;;;1.70;;
53533;SDS011;39421;53.204;6.568;2022-08-01T15:07:46;3.60;;;1.60;;
53533;SDS011;39421;53.204;6.568;2022-08-01T15:10:12;5.03;;;1.77;;
53533;SDS011;39421;53.204;6.568;2022-08-01T15:12:37;3.55;;;1.50;;
53533;SDS011;39421;53.204;6.568;2022-08-01T15:15:03;2.88;;;1.63;;
53533;SDS011;39421;53.204;6.568;2022-08-01T15:17:30;4.38;;;1.63;;
53533;SDS011;39421;53.204;6.568;2022-08-01T15:20:01;4.50;;;1.70;;
53533;SDS011;39421;53.204;6.568;2022-08-01T15:22:30;3.72;;;1.50;;
53533;SDS011;39421;53.204;6.568;2022-08-01T15:24:58;3.57;;;1.47;;
53533;SDS011;39421;53.204;6.568;2022-08-01T15:27:26;3.80;;;1.70;;
53533;SDS011;39421;53.204;6.568;2022-08-01T15:29:53;4.18;;;1.50;;
53533;SDS011;39421;53.204;6.568;2022-08-01T15:32:20;4.03;;;1.65;;
53533;SDS011;39421;53.204;6.568;2022-08-01T15:34:55;5.72;;;1.75;;
53533;SDS011;39421;53.204;6.568;2022-08-01T15:37:20;4.68;;;1.60;;
53533;SDS011;39421;53.204;6.568;2022-08-01T15:39:46;3.75;;;1.65;;
53533;SDS011;39421;53.204;6.568;2022-08-01T15:42:16;5.25;;;1.80;;
53533;SDS011;39421;53.204;6.568;2022-08-01T15:44:43;4.20;;;1.50;;